sensor_id;sensor_type;location;lat;lon;timestamp;pressure;altitude;pressure_sealevel;temperature;humidity
55466;BME280;41329;41.594;23.810;2023-06-22T00:01:27;95610.06;;;21.92;63.80
55466;BME280;41329;41.594;23.810;2023-06-22T00:03:52;95596.22;;;21.81;64.21
55466;BME280;41329;41.594;23.810;2023-06-22T00:06:18;95601.25;;;21.74;64.12
55466;BME280;41329;41.594;23.810;2023-06-22T00:08:44;95589.13;;;21.57;63.34
55466;BME280;41329;41.594;23.810;2023-06-22T00:11:09;95600.13;;;21.52;63.41
55466;BME280;41329;41.594;23.810;2023-06-22T00:13:35;95632.00;;;21.65;63.96
55466;BME280;41329;41.594;23.810;2023-06-22T00:16:00;95624.94;;;21.57;63.71
55466;BME280;41329;41.594;23.810;2023-06-22T00:18:26;95615.91;;;21.46;63.73
55466;BME280;41329;41.594;23.810;2023-06-22T00:20:54;95638.81;;;21.48;63.89
55466;BME280;41329;41.594;23.810;2023-06-22T00:23:23;95616.59;;;21.14;63.76
55466;BME280;41329;41.594;23.810;2023-06-22T00:25:49;95625.31;;;21.20;64.21
55466;BME280;41329;41.594;23.810;2023-06-22T00:28:15;95645.03;;;21.20;64.48
55466;BME280;41329;41.594;23.810;2023-06-22T00:30:40;95634.56;;;21.01;65.01
55466;BME280;41329;41.594;23.810;2023-06-22T00:33:06;95651.00;;;21.02;65.13
55466;BME280;41329;41.594;23.810;2023-06-22T00:35:32;95653.03;;;21.02;65.46
55466;BME280;41329;41.594;23.810;2023-06-22T00:37:59;95641.03;;;20.98;65.48
55466;BME280;41329;41.594;23.810;2023-06-22T00:40:31;95629.00;;;20.74;65.22
55466;BME280;41329;41.594;23.810;2023-06-22T00:42:57;95643.28;;;20.83;65.52
55466;BME280;41329;41.594;23.810;2023-06-22T00:45:23;95648.84;;;20.87;65.94
55466;BME280;41329;41.594;23.810;2023-06-22T00:47:50;95659.31;;;20.86;65.86
55466;BME280;41329;41.594;23.810;2023-06-22T00:50:20;95664.06;;;20.89;65.13
55466;BME280;41329;41.594;23.810;2023-06-22T00:52:49;95639.16;;;20.68;64.86
55466;BME280;41329;41.594;23.810;2023-06-22T00:55:16;95657.06;;;20.78;65.33
55466;BME280;41329;41.594;23.810;2023-06-22T00:57:45;95637.53;;;20.71;65.03
55466;BME280;41329;41.594;23.810;2023-06-22T01:00:11;95624.81;;;20.63;65.74
55466;BME280;41329;41.594;23.810;2023-06-22T01:02:44;95632.38;;;20.66;65.73
55466;BME280;41329;41.594;23.810;2023-06-22T01:05:18;95641.50;;;20.73;65.95
55466;BME280;41329;41.594;23.810;2023-06-22T01:16:20;95626.81;;;20.62;65.43
55466;BME280;41329;41.594;23.810;2023-06-22T01:18:50;95662.25;;;20.79;65.61
55466;BME280;41329;41.594;23.810;2023-06-22T01:21:19;95630.84;;;20.61;65.00
55466;BME280;41329;41.594;23.810;2023-06-22T01:24:19;95651.50;;;20.74;64.81
55466;BME280;41329;41.594;23.810;2023-06-22T01:29:52;95625.47;;;20.47;65.55
55466;BME280;41329;41.594;23.810;2023-06-22T01:32:29;95623.09;;;20.46;65.90
55466;BME280;41329;41.594;23.810;2023-06-22T01:34:56;95638.19;;;20.55;65.96
55466;BME280;41329;41.594;23.810;2023-06-22T01:37:23;95640.63;;;20.53;66.01
55466;BME280;41329;41.594;23.810;2023-06-22T01:39:48;95645.44;;;20.53;65.93
55466;BME280;41329;41.594;23.810;2023-06-22T01:42:14;95622.56;;;20.31;65.67
55466;BME280;41329;41.594;23.810;2023-06-22T01:44:40;95658.63;;;20.33;65.52
55466;BME280;41329;41.594;23.810;2023-06-22T01:47:06;95661.09;;;20.31;65.35
55466;BME280;41329;41.594;23.810;2023-06-22T01:49:32;95639.00;;;20.06;65.59
55466;BME280;41329;41.594;23.810;2023-06-22T01:51:58;95643.00;;;20.05;65.88
55466;BME280;41329;41.594;23.810;2023-06-22T01:54:23;95661.44;;;20.10;66.43
55466;BME280;41329;41.594;23.810;2023-06-22T01:56:49;95641.06;;;20.02;66.52
55466;BME280;41329;41.594;23.810;2023-06-22T01:59:18;95664.50;;;20.19;66.97
55466;BME280;41329;41.594;23.810;2023-06-22T02:02:04;95665.34;;;20.16;66.64
55466;BME280;41329;41.594;23.810;2023-06-22T02:04:36;95670.19;;;20.15;66.96
55466;BME280;41329;41.594;23.810;2023-06-22T02:07:05;95665.00;;;20.14;66.94
55466;BME280;41329;41.594;23.810;2023-06-22T02:09:35;95663.81;;;20.08;67.27
55466;BME280;41329;41.594;23.810;2023-06-22T02:12:03;95664.25;;;20.10;67.32
55466;BME280;41329;41.594;23.810;2023-06-22T02:14:30;95666.25;;;20.09;67.81
55466;BME280;41329;41.594;23.810;2023-06-22T02:16:56;95666.28;;;20.06;67.94
55466;BME280;41329;41.594;23.810;2023-06-22T02:19:24;95652.34;;;19.99;68.74
55466;BME280;41329;41.594;23.810;2023-06-22T02:21:50;95680.56;;;20.18;68.68
55466;BME280;41329;41.594;23.810;2023-06-22T02:24:16;95678.28;;;20.10;67.79
55466;BME280;41329;41.594;23.810;2023-06-22T02:26:42;95675.94;;;20.05;66.60
55466;BME280;41329;41.594;23.810;2023-06-22T02:29:09;95681.56;;;20.05;66.17
55466;BME280;41329;41.594;23.810;2023-06-22T02:31:35;95686.78;;;20.03;66.23
55466;BME280;41329;41.594;23.810;2023-06-22T02:34:00;95673.31;;;19.91;66.03
55466;BME280;41329;41.594;23.810;2023-06-22T02:36:26;95683.72;;;19.94;66.10
55466;BME280;41329;41.594;23.810;2023-06-22T02:38:53;95655.16;;;19.72;66.83
55466;BME280;41329;41.594;23.810;2023-06-22T02:41:19;95671.84;;;19.83;67.02
55466;BME280;41329;41.594;23.810;2023-06-22T02:43:45;95679.41;;;19.86;67.35
55466;BME280;41329;41.594;23.810;2023-06-22T02:46:11;95648.81;;;19.68;67.30
55466;BME280;41329;41.594;23.810;2023-06-22T02:48:41;95679.00;;;19.87;68.04
55466;BME280;41329;41.594;23.810;2023-06-22T02:51:06;95674.66;;;19.83;68.36
55466;BME280;41329;41.594;23.810;2023-06-22T02:53:32;95695.03;;;19.87;67.91
55466;BME280;41329;41.594;23.810;2023-06-22T02:55:57;95664.66;;;19.52;67.38
55466;BME280;41329;41.594;23.810;2023-06-22T02:58:23;95700.63;;;19.60;67.18
55466;BME280;41329;41.594;23.810;2023-06-22T03:00:49;95716.59;;;19.67;67.01
55466;BME280;41329;41.594;23.810;2023-06-22T03:03:18;95720.97;;;19.68;67.67
55466;BME280;41329;41.594;23.810;2023-06-22T03:05:44;95714.97;;;19.66;68.27
55466;BME280;41329;41.594;23.810;2023-06-22T03:08:09;95686.69;;;19.53;67.99
55466;BME280;41329;41.594;23.810;2023-06-22T03:10:35;95696.31;;;19.52;68.06
55466;BME280;41329;41.594;23.810;2023-06-22T03:13:00;95715.44;;;19.64;67.97
55466;BME280;41329;41.594;23.810;2023-06-22T03:15:25;95692.34;;;19.50;68.00
55466;BME280;41329;41.594;23.810;2023-06-22T03:17:54;95691.25;;;19.40;67.88
55466;BME280;41329;41.594;23.810;2023-06-22T03:20:20;95683.25;;;19.39;67.97
55466;BME280;41329;41.594;23.810;2023-06-22T03:22:45;95703.47;;;19.57;68.20
55466;BME280;41329;41.594;23.810;2023-06-22T03:25:11;95709.47;;;19.59;68.86
55466;BME280;41329;41.594;23.810;2023-06-22T03:27:39;95708.66;;;19.62;68.83
55466;BME280;41329;41.594;23.810;2023-06-22T03:30:06;95693.84;;;19.58;68.92
55466;BME280;41329;41.594;23.810;2023-06-22T03:32:32;95699.78;;;19.63;69.05
55466;BME280;41329;41.594;23.810;2023-06-22T03:34:57;95697.44;;;19.58;69.02
55466;BME280;41329;41.594;23.810;2023-06-22T03:37:27;95682.31;;;19.49;69.14
55466;BME280;41329;41.594;23.810;2023-06-22T03:39:53;95691.94;;;19.51;69.13
55466;BME280;41329;41.594;23.810;2023-06-22T03:42:18;95699.91;;;19.53;69.25
55466;BME280;41329;41.594;23.810;2023-06-22T03:44:44;95707.50;;;19.56;69.53
55466;BME280;41329;41.594;23.810;2023-06-22T03:47:09;95672.84;;;19.39;69.84
55466;BME280;41329;41.594;23.810;2023-06-22T03:49:35;95708.72;;;19.55;70.18
55466;BME280;41329;41.594;23.810;2023-06-22T03:52:04;95716.75;;;19.53;69.50
55466;BME280;41329;41.594;23.810;2023-06-22T03:54:29;95728.78;;;19.53;69.13
55466;BME280;41329;41.594;23.810;2023-06-22T03:56:56;95723.22;;;19.50;69.05
55466;BME280;41329;41.594;23.810;2023-06-22T03:59:22;95721.19;;;19.54;68.92
55466;BME280;41329;41.594;23.810;2023-06-22T04:01:47;95719.94;;;19.55;68.93
55466;BME280;41329;41.594;23.810;2023-06-22T04:04:13;95729.53;;;19.57;69.45
55466;BME280;41329;41.594;23.810;2023-06-22T04:06:38;95719.91;;;19.58;69.34
55466;BME280;41329;41.594;23.810;2023-06-22T04:09:05;95714.25;;;19.62;69.77
55466;BME280;41329;41.594;23.810;2023-06-22T04:11:31;95710.31;;;19.56;69.45
55466;BME280;41329;41.594;23.810;2023-06-22T04:13:56;95741.38;;;19.72;69.45
55466;BME280;41329;41.594;23.810;2023-06-22T04:16:22;95702.31;;;19.54;69.46
55466;BME280;41329;41.594;23.810;2023-06-22T04:18:47;95740.16;;;19.73;69.92
55466;BME280;41329;41.594;23.810;2023-06-22T04:21:13;95726.34;;;19.55;69.91
55466;BME280;41329;41.594;23.810;2023-06-22T04:23:38;95720.56;;;19.36;70.69
55466;BME280;41329;41.594;23.810;2023-06-22T04:26:04;95733.47;;;19.30;72.45
55466;BME280;41329;41.594;23.810;2023-06-22T04:28:29;95717.41;;;18.93;72.52
55466;BME280;41329;41.594;23.810;2023-06-22T04:30:54;95723.75;;;19.01;72.85
55466;BME280;41329;41.594;23.810;2023-06-22T04:33:23;95725.09;;;18.86;72.85
55466;BME280;41329;41.594;23.810;2023-06-22T04:35:48;95713.44;;;18.91;72.81
55466;BME280;41329;41.594;23.810;2023-06-22T04:38:14;95720.13;;;19.00;73.05
55466;BME280;41329;41.594;23.810;2023-06-22T04:40:40;95741.59;;;19.17;73.05
55466;BME280;41329;41.594;23.810;2023-06-22T04:43:05;95735.94;;;19.24;73.29
55466;BME280;41329;41.594;23.810;2023-06-22T04:45:32;95735.47;;;19.29;73.92
55466;BME280;41329;41.594;23.810;2023-06-22T04:47:58;95749.25;;;19.50;73.81
55466;BME280;41329;41.594;23.810;2023-06-22T04:50:23;95749.31;;;19.47;73.28
55466;BME280;41329;41.594;23.810;2023-06-22T04:52:50;95760.75;;;19.63;73.41
55466;BME280;41329;41.594;23.810;2023-06-22T04:55:16;95755.03;;;19.70;73.23
55466;BME280;41329;41.594;23.810;2023-06-22T04:57:45;95730.25;;;19.65;72.99
55466;BME280;41329;41.594;23.810;2023-06-22T05:00:20;95752.81;;;19.88;73.28
55466;BME280;41329;41.594;23.810;2023-06-22T05:02:48;95746.34;;;19.91;72.82
55466;BME280;41329;41.594;23.810;2023-06-22T05:05:14;95722.44;;;19.79;72.80
55466;BME280;41329;41.594;23.810;2023-06-22T05:07:42;95750.28;;;19.97;72.61
55466;BME280;41329;41.594;23.810;2023-06-22T05:10:10;95747.84;;;19.99;72.67
55466;BME280;41329;41.594;23.810;2023-06-22T05:12:38;95764.16;;;20.11;71.95
55466;BME280;41329;41.594;23.810;2023-06-22T05:15:05;95751.34;;;20.10;72.26
55466;BME280;41329;41.594;23.810;2023-06-22T05:17:31;95751.28;;;20.13;72.24
55466;BME280;41329;41.594;23.810;2023-06-22T05:19:56;95720.16;;;19.97;72.71
55466;BME280;41329;41.594;23.810;2023-06-22T05:22:22;95742.00;;;20.16;73.02
55466;BME280;41329;41.594;23.810;2023-06-22T05:24:47;95723.41;;;19.96;73.39
55466;BME280;41329;41.594;23.810;2023-06-22T05:27:13;95733.69;;;20.06;73.21
55466;BME280;41329;41.594;23.810;2023-06-22T05:29:39;95753.50;;;20.25;72.77
55466;BME280;41329;41.594;23.810;2023-06-22T05:32:05;95744.06;;;20.12;71.75
55466;BME280;41329;41.594;23.810;2023-06-22T05:34:31;95726.22;;;19.96;72.38
55466;BME280;41329;41.594;23.810;2023-06-22T05:36:57;95728.97;;;19.99;73.20
55466;BME280;41329;41.594;23.810;2023-06-22T05:39:24;95733.75;;;20.02;74.46
55466;BME280;41329;41.594;23.810;2023-06-22T05:41:50;95741.53;;;20.21;74.62
55466;BME280;41329;41.594;23.810;2023-06-22T05:44:15;95725.34;;;20.29;73.93
55466;BME280;41329;41.594;23.810;2023-06-22T05:46:42;95740.84;;;20.40;74.00
55466;BME280;41329;41.594;23.810;2023-06-22T05:49:14;95738.88;;;20.37;73.56
55466;BME280;41329;41.594;23.810;2023-06-22T05:51:41;95739.56;;;20.45;73.64
55466;BME280;41329;41.594;23.810;2023-06-22T05:54:07;95710.34;;;20.39;73.56
55466;BME280;41329;41.594;23.810;2023-06-22T05:56:33;95739.53;;;20.22;74.04
55466;BME280;41329;41.594;23.810;2023-06-22T05:58:59;95728.75;;;20.17;73.49
55466;BME280;41329;41.594;23.810;2023-06-22T06:01:24;95733.31;;;20.34;73.51
55466;BME280;41329;41.594;23.810;2023-06-22T06:03:51;95723.06;;;20.47;74.26
55466;BME280;41329;41.594;23.810;2023-06-22T06:06:18;95729.63;;;20.63;74.48
55466;BME280;41329;41.594;23.810;2023-06-22T06:08:43;95717.41;;;20.73;72.39
55466;BME280;41329;41.594;23.810;2023-06-22T06:11:08;95726.59;;;20.77;70.57
55466;BME280;41329;41.594;23.810;2023-06-22T06:13:34;95704.63;;;20.69;69.59
55466;BME280;41329;41.594;23.810;2023-06-22T06:15:59;95724.59;;;21.01;68.48
55466;BME280;41329;41.594;23.810;2023-06-22T06:18:25;95707.28;;;21.02;68.36
55466;BME280;41329;41.594;23.810;2023-06-22T06:20:51;95709.53;;;21.11;68.63
55466;BME280;41329;41.594;23.810;2023-06-22T06:23:17;95700.44;;;21.23;67.49
55466;BME280;41329;41.594;23.810;2023-06-22T06:25:43;95714.41;;;21.49;66.88
55466;BME280;41329;41.594;23.810;2023-06-22T06:28:08;95713.75;;;21.61;66.33
55466;BME280;41329;41.594;23.810;2023-06-22T06:44:30;95736.06;;;22.46;61.23
55466;BME280;41329;41.594;23.810;2023-06-22T06:46:55;95727.50;;;22.50;61.75
55466;BME280;41329;41.594;23.810;2023-06-22T06:49:21;95727.69;;;22.59;61.87
55466;BME280;41329;41.594;23.810;2023-06-22T06:51:46;95720.75;;;22.63;61.41
55466;BME280;41329;41.594;23.810;2023-06-22T06:54:11;95702.16;;;22.66;61.03
55466;BME280;41329;41.594;23.810;2023-06-22T06:56:37;95729.03;;;22.86;60.96
55466;BME280;41329;41.594;23.810;2023-06-22T06:59:02;95718.16;;;22.85;61.30
55466;BME280;41329;41.594;23.810;2023-06-22T07:01:27;95716.69;;;22.97;60.50
55466;BME280;41329;41.594;23.810;2023-06-22T07:03:59;95715.72;;;23.03;60.83
55466;BME280;41329;41.594;23.810;2023-06-22T07:06:24;95725.56;;;23.11;60.37
55466;BME280;41329;41.594;23.810;2023-06-22T07:08:55;95727.50;;;23.14;60.70
55466;BME280;41329;41.594;23.810;2023-06-22T07:11:20;95712.88;;;23.19;60.22
55466;BME280;41329;41.594;23.810;2023-06-22T07:13:45;95683.25;;;23.11;58.51
55466;BME280;41329;41.594;23.810;2023-06-22T07:16:11;95700.19;;;23.27;58.84
55466;BME280;41329;41.594;23.810;2023-06-22T07:18:36;95714.34;;;23.40;58.67
55466;BME280;41329;41.594;23.810;2023-06-22T07:21:01;95666.75;;;23.26;58.61
55466;BME280;41329;41.594;23.810;2023-06-22T07:23:28;95702.78;;;23.63;58.07
55466;BME280;41329;41.594;23.810;2023-06-22T07:25:54;95697.72;;;23.70;57.04
55466;BME280;41329;41.594;23.810;2023-06-22T07:28:19;95699.00;;;23.82;57.96
55466;BME280;41329;41.594;23.810;2023-06-22T07:30:46;95697.41;;;23.81;56.18
55466;BME280;41329;41.594;23.810;2023-06-22T07:33:11;95682.84;;;23.82;57.04
55466;BME280;41329;41.594;23.810;2023-06-22T07:35:36;95691.50;;;24.04;57.31
55466;BME280;41329;41.594;23.810;2023-06-22T07:38:02;95692.41;;;24.13;56.66
55466;BME280;41329;41.594;23.810;2023-06-22T07:40:28;95694.78;;;24.27;56.33
55466;BME280;41329;41.594;23.810;2023-06-22T07:42:54;95693.00;;;24.46;56.05
55466;BME280;41329;41.594;23.810;2023-06-22T07:45:20;95685.31;;;24.46;55.67
55466;BME280;41329;41.594;23.810;2023-06-22T07:47:45;95684.50;;;24.46;55.34
55466;BME280;41329;41.594;23.810;2023-06-22T07:50:11;95668.31;;;24.59;56.04
55466;BME280;41329;41.594;23.810;2023-06-22T07:52:36;95687.09;;;24.90;53.54
55466;BME280;41329;41.594;23.810;2023-06-22T07:55:02;95672.56;;;25.01;53.27
55466;BME280;41329;41.594;23.810;2023-06-22T07:57:27;95688.59;;;25.29;52.93
55466;BME280;41329;41.594;23.810;2023-06-22T08:00:04;95686.66;;;25.38;51.42
55466;BME280;41329;41.594;23.810;2023-06-22T08:02:37;95682.59;;;25.27;49.77
55466;BME280;41329;41.594;23.810;2023-06-22T08:05:02;95666.41;;;25.27;49.34
55466;BME280;41329;41.594;23.810;2023-06-22T08:07:27;95650.28;;;25.24;50.13
55466;BME280;41329;41.594;23.810;2023-06-22T08:09:53;95669.38;;;25.45;49.86
55466;BME280;41329;41.594;23.810;2023-06-22T08:12:18;95657.34;;;25.54;48.81
55466;BME280;41329;41.594;23.810;2023-06-22T08:14:44;95663.06;;;25.63;48.78
55466;BME280;41329;41.594;23.810;2023-06-22T08:17:11;95673.34;;;25.91;48.48
55466;BME280;41329;41.594;23.810;2023-06-22T08:19:37;95636.44;;;25.82;45.54
55466;BME280;41329;41.594;23.810;2023-06-22T08:22:02;95664.66;;;26.07;47.45
55466;BME280;41329;41.594;23.810;2023-06-22T08:24:28;95634.25;;;26.07;47.11
55466;BME280;41329;41.594;23.810;2023-06-22T08:26:55;95642.28;;;26.39;46.98
55466;BME280;41329;41.594;23.810;2023-06-22T08:29:21;95652.41;;;26.49;45.37
55466;BME280;41329;41.594;23.810;2023-06-22T08:31:46;95649.88;;;26.42;44.92
55466;BME280;41329;41.594;23.810;2023-06-22T08:34:12;95652.91;;;26.57;45.98
55466;BME280;41329;41.594;23.810;2023-06-22T08:36:37;95629.41;;;26.56;44.85
55466;BME280;41329;41.594;23.810;2023-06-22T08:39:10;95627.50;;;26.53;44.17
55466;BME280;41329;41.594;23.810;2023-06-22T08:41:35;95644.66;;;26.80;44.70
55466;BME280;41329;41.594;23.810;2023-06-22T08:44:01;95639.94;;;26.95;45.62
55466;BME280;41329;41.594;23.810;2023-06-22T08:46:26;95618.78;;;26.78;43.53
55466;BME280;41329;41.594;23.810;2023-06-22T08:48:56;95641.84;;;26.98;45.17
55466;BME280;41329;41.594;23.810;2023-06-22T08:51:24;95622.59;;;27.11;44.54
55466;BME280;41329;41.594;23.810;2023-06-22T08:53:50;95640.50;;;27.39;44.77
55466;BME280;41329;41.594;23.810;2023-06-22T08:56:15;95637.34;;;27.37;43.83
55466;BME280;41329;41.594;23.810;2023-06-22T08:58:40;95642.84;;;27.49;43.90
55466;BME280;41329;41.594;23.810;2023-06-22T09:01:06;95639.97;;;27.76;43.45
55466;BME280;41329;41.594;23.810;2023-06-22T09:03:31;95608.09;;;27.54;42.48
55466;BME280;41329;41.594;23.810;2023-06-22T09:05:58;95621.22;;;27.61;42.23
55466;BME280;41329;41.594;23.810;2023-06-22T09:08:24;95628.00;;;27.63;41.76
55466;BME280;41329;41.594;23.810;2023-06-22T09:10:49;95633.06;;;27.87;42.34
55466;BME280;41329;41.594;23.810;2023-06-22T09:13:14;95632.25;;;28.04;41.97
55466;BME280;41329;41.594;23.810;2023-06-22T09:15:40;95608.34;;;28.02;41.97
55466;BME280;41329;41.594;23.810;2023-06-22T09:18:05;95625.66;;;28.31;41.86
55466;BME280;41329;41.594;23.810;2023-06-22T09:20:31;95616.47;;;28.45;41.53
55466;BME280;41329;41.594;23.810;2023-06-22T09:22:56;95612.84;;;28.35;41.60
55466;BME280;41329;41.594;23.810;2023-06-22T09:25:21;95619.34;;;28.27;41.22
55466;BME280;41329;41.594;23.810;2023-06-22T09:27:47;95608.28;;;28.29;44.16
55466;BME280;41329;41.594;23.810;2023-06-22T09:30:13;95574.72;;;28.42;44.06
55466;BME280;41329;41.594;23.810;2023-06-22T09:32:38;95602.34;;;28.83;41.88
55466;BME280;41329;41.594;23.810;2023-06-22T09:35:05;95603.44;;;28.85;40.01
55466;BME280;41329;41.594;23.810;2023-06-22T09:37:31;95585.78;;;28.72;40.83
55466;BME280;41329;41.594;23.810;2023-06-22T09:39:57;95600.22;;;28.92;39.62
55466;BME280;41329;41.594;23.810;2023-06-22T09:42:22;95600.50;;;29.03;40.09
55466;BME280;41329;41.594;23.810;2023-06-22T09:44:47;95609.69;;;29.22;39.46
55466;BME280;41329;41.594;23.810;2023-06-22T09:47:13;95607.97;;;29.39;40.08
55466;BME280;41329;41.594;23.810;2023-06-22T09:49:38;95603.59;;;29.52;39.41
55466;BME280;41329;41.594;23.810;2023-06-22T09:52:04;95598.31;;;29.60;36.53
55466;BME280;41329;41.594;23.810;2023-06-22T09:54:29;95599.53;;;29.44;36.05
55466;BME280;41329;41.594;23.810;2023-06-22T09:56:55;95584.78;;;29.46;35.77
55466;BME280;41329;41.594;23.810;2023-06-22T09:59:20;95595.63;;;29.56;35.77
55466;BME280;41329;41.594;23.810;2023-06-22T10:01:46;95580.94;;;29.72;37.26
55466;BME280;41329;41.594;23.810;2023-06-22T10:04:11;95591.84;;;30.03;36.28
55466;BME280;41329;41.594;23.810;2023-06-22T10:06:36;95591.69;;;30.21;37.08
55466;BME280;41329;41.594;23.810;2023-06-22T10:09:06;95583.28;;;30.32;37.15
55466;BME280;41329;41.594;23.810;2023-06-22T10:11:32;95586.47;;;30.34;37.87
55466;BME280;41329;41.594;23.810;2023-06-22T10:14:00;95564.22;;;30.09;36.18
55466;BME280;41329;41.594;23.810;2023-06-22T10:16:30;95554.84;;;30.08;36.74
55466;BME280;41329;41.594;23.810;2023-06-22T10:18:56;95568.13;;;30.40;37.58
55466;BME280;41329;41.594;23.810;2023-06-22T10:21:21;95569.47;;;30.45;35.27
55466;BME280;41329;41.594;23.810;2023-06-22T10:23:46;95551.31;;;30.62;37.37
55466;BME280;41329;41.594;23.810;2023-06-22T10:26:12;95545.81;;;30.73;35.44
55466;BME280;41329;41.594;23.810;2023-06-22T10:28:37;95536.75;;;30.75;35.20
55466;BME280;41329;41.594;23.810;2023-06-22T10:31:03;95563.59;;;31.03;33.43
55466;BME280;41329;41.594;23.810;2023-06-22T10:33:28;95554.19;;;30.97;33.81
55466;BME280;41329;41.594;23.810;2023-06-22T10:35:53;95546.94;;;31.01;34.94
55466;BME280;41329;41.594;23.810;2023-06-22T10:38:19;95553.03;;;31.29;35.00
55466;BME280;41329;41.594;23.810;2023-06-22T10:40:44;95520.59;;;31.32;35.48
55466;BME280;41329;41.594;23.810;2023-06-22T10:43:09;95534.53;;;31.70;36.09
55466;BME280;41329;41.594;23.810;2023-06-22T10:45:35;95533.19;;;31.91;34.74
55466;BME280;41329;41.594;23.810;2023-06-22T10:48:00;95510.13;;;32.00;33.41
55466;BME280;41329;41.594;23.810;2023-06-22T10:50:25;95538.50;;;32.29;35.30
55466;BME280;41329;41.594;23.810;2023-06-22T10:52:51;95532.16;;;32.51;33.00
55466;BME280;41329;41.594;23.810;2023-06-22T10:55:16;95526.84;;;32.75;34.83
55466;BME280;41329;41.594;23.810;2023-06-22T10:57:42;95511.03;;;32.85;33.07
55466;BME280;41329;41.594;23.810;2023-06-22T11:00:09;95524.72;;;33.06;31.54
55466;BME280;41329;41.594;23.810;2023-06-22T11:02:36;95519.97;;;32.98;30.77
55466;BME280;41329;41.594;23.810;2023-06-22T11:05:02;95514.59;;;32.74;31.77
55466;BME280;41329;41.594;23.810;2023-06-22T11:07:29;95509.13;;;32.71;33.32
55466;BME280;41329;41.594;23.810;2023-06-22T11:09:54;95513.72;;;32.57;32.01
55466;BME280;41329;41.594;23.810;2023-06-22T11:12:20;95505.00;;;32.41;31.09
55466;BME280;41329;41.594;23.810;2023-06-22T11:14:45;95492.34;;;32.21;31.08
55466;BME280;41329;41.594;23.810;2023-06-22T11:17:11;95514.28;;;32.30;31.76
55466;BME280;41329;41.594;23.810;2023-06-22T11:19:36;95510.53;;;32.18;29.50
55466;BME280;41329;41.594;23.810;2023-06-22T11:22:02;95506.81;;;32.07;30.26
55466;BME280;41329;41.594;23.810;2023-06-22T11:24:27;95493.44;;;31.93;29.85
55466;BME280;41329;41.594;23.810;2023-06-22T11:26:52;95507.88;;;32.09;30.00
55466;BME280;41329;41.594;23.810;2023-06-22T11:29:18;95498.16;;;32.01;30.54
55466;BME280;41329;41.594;23.810;2023-06-22T11:31:43;95511.03;;;32.11;32.13
55466;BME280;41329;41.594;23.810;2023-06-22T11:34:09;95505.44;;;31.97;31.63
55466;BME280;41329;41.594;23.810;2023-06-22T11:36:34;95505.53;;;31.57;30.76
55466;BME280;41329;41.594;23.810;2023-06-22T11:39:01;95509.56;;;31.70;30.42
55466;BME280;41329;41.594;23.810;2023-06-22T11:41:26;95480.09;;;31.64;30.96
55466;BME280;41329;41.594;23.810;2023-06-22T11:43:51;95503.28;;;31.92;30.53
55466;BME280;41329;41.594;23.810;2023-06-22T11:46:17;95499.41;;;31.95;30.66
55466;BME280;41329;41.594;23.810;2023-06-22T11:48:42;95506.84;;;32.12;30.84
55466;BME280;41329;41.594;23.810;2023-06-22T11:51:08;95501.91;;;32.13;31.05
55466;BME280;41329;41.594;23.810;2023-06-22T11:53:34;95475.31;;;32.07;31.00
55466;BME280;41329;41.594;23.810;2023-06-22T11:56:00;95481.53;;;32.37;29.87
55466;BME280;41329;41.594;23.810;2023-06-22T11:58:26;95493.16;;;32.59;29.27
55466;BME280;41329;41.594;23.810;2023-06-22T12:00:51;95497.72;;;32.82;30.30
55466;BME280;41329;41.594;23.810;2023-06-22T12:03:17;95492.88;;;33.04;29.44
55466;BME280;41329;41.594;23.810;2023-06-22T12:05:43;95491.00;;;32.90;29.10
55466;BME280;41329;41.594;23.810;2023-06-22T12:08:09;95486.53;;;32.84;28.92
55466;BME280;41329;41.594;23.810;2023-06-22T12:10:34;95492.69;;;32.71;29.57
55466;BME280;41329;41.594;23.810;2023-06-22T12:12:59;95493.47;;;32.72;29.04
55466;BME280;41329;41.594;23.810;2023-06-22T12:15:26;95483.00;;;32.63;29.76
55466;BME280;41329;41.594;23.810;2023-06-22T12:17:52;95489.81;;;32.71;30.48
55466;BME280;41329;41.594;23.810;2023-06-22T12:20:17;95482.78;;;32.72;30.10
55466;BME280;41329;41.594;23.810;2023-06-22T12:22:43;95486.03;;;32.85;30.18
55466;BME280;41329;41.594;23.810;2023-06-22T12:25:09;95480.09;;;33.00;30.71
55466;BME280;41329;41.594;23.810;2023-06-22T12:27:35;95476.75;;;33.12;32.01
55466;BME280;41329;41.594;23.810;2023-06-22T12:30:02;95481.22;;;33.24;29.57
55466;BME280;41329;41.594;23.810;2023-06-22T12:32:28;95460.84;;;33.11;30.26
55466;BME280;41329;41.594;23.810;2023-06-22T12:34:53;95469.25;;;33.26;29.19
55466;BME280;41329;41.594;23.810;2023-06-22T12:37:18;95459.63;;;33.34;30.66
55466;BME280;41329;41.594;23.810;2023-06-22T12:39:44;95459.13;;;33.36;30.81
55466;BME280;41329;41.594;23.810;2023-06-22T12:42:10;95476.38;;;33.52;30.85
55466;BME280;41329;41.594;23.810;2023-06-22T12:44:38;95474.56;;;33.49;30.11
55466;BME280;41329;41.594;23.810;2023-06-22T12:47:04;95467.78;;;33.63;30.32
55466;BME280;41329;41.594;23.810;2023-06-22T12:49:29;95459.44;;;33.76;29.37
55466;BME280;41329;41.594;23.810;2023-06-22T12:51:55;95464.44;;;33.81;29.89
55466;BME280;41329;41.594;23.810;2023-06-22T12:54:20;95460.53;;;34.06;30.50
55466;BME280;41329;41.594;23.810;2023-06-22T12:56:45;95458.19;;;34.27;30.52
55466;BME280;41329;41.594;23.810;2023-06-22T12:59:11;95431.28;;;34.35;29.41
55466;BME280;41329;41.594;23.810;2023-06-22T13:01:36;95450.59;;;34.40;28.97
55466;BME280;41329;41.594;23.810;2023-06-22T13:04:02;95447.72;;;34.51;30.61
55466;BME280;41329;41.594;23.810;2023-06-22T13:06:28;95442.19;;;34.64;30.20
55466;BME280;41329;41.594;23.810;2023-06-22T13:08:53;95447.72;;;34.40;27.74
55466;BME280;41329;41.594;23.810;2023-06-22T13:11:19;95435.75;;;34.03;28.86